Nearby METAR Reports

 

KPMD - Palmdale, California, USA
Distance from station: NNE 12mi, 19km
Updated: Sun, 17-Feb-2019 12:53pm PST
Overcast
Overcast
 Wind from WSW
Wind: WSW 26 mph , 43 km/h, Gust: 33 mph , 54 km/h
Temperature: 46°F , 8°C
Wind Chill: 37°F , 3°C
Dew Point: 34°F , 1°C
Humidity: 62%
Barometer: 29.90 inHg , 1012.5 hPa
Clouds: Overcast
Visibility: 10 miles , 16 km
Cloud details: Partly cloudy 4800 ft
Overcast 5500 ft
2019/02/17 20:53 KPMD 172053Z 25023G29KT 10SM SCT048 OVC055 08/01 A2990 RMK AO2 PK WND 22034/2000 SLP127 T00780006 56029
KWJF - Lancaster/Fox, California, USA
Distance from station: N 17mi, 27km
Updated: Sun, 17-Feb-2019 12:37pm PST
Light rain, Mist, Overcast
Light rain, Mist, Overcast
 Wind from WNW
Wind: WNW 18 mph , 30 km/h, Gust: 28 mph , 44 km/h
Temperature: 39°F , 4°C
Wind Chill: 30°F , -1°C
Dew Point: 37°F , 3°C
Humidity: 93%
Barometer: 29.95 inHg , 1014.2 hPa
Summary: Light rain, Mist
Clouds: Overcast
Visibility: 4 miles , 6 km
Cloud details: Mostly cloudy 2800 ft
Overcast 3400 ft
2019/02/17 20:37 KWJF 172037Z 30016G24KT 4SM -RA BR BKN028 OVC034 04/03 A2995 RMK AO2 PK WND 25027/2002 WSHFT 2019 RAB14 P0001 T00440028
 
KMWS - Mount Wilson, California, USA
Distance from station: SSE 18mi, 30km
Updated: Wed, 13-May-2015 6:45am PDT
NOT Current

 Wind from S
Wind: S 3 mph , 6 km/h, Gust: 5 mph , 7 km/h
Temperature: 43°F , 6°C
Dew Point: -0°F , -18°C
Humidity: 16%
2015/05/13 13:45 KMWS 131345Z 18003G04KT 06/M18 RMK SNOW DEPTH 1.00
KWHP - La / Whiteman, California, USA
Distance from station: SW 21mi, 34km
Updated: Sun, 17-Feb-2019 12:50pm PST
Overcast
Overcast
 Wind from SSW
Wind: SSW 10 mph , 17 km/h
Temperature: 52°F , 11°C
Dew Point: 37°F , 3°C
Humidity: 58%
Barometer: 30.03 inHg , 1016.9 hPa
Clouds: Overcast
Visibility: 10 miles , 16 km
Cloud details: Overcast 7000 ft
2019/02/17 20:50 KWHP 172050Z 20009KT 10SM OVC070 11/03 A3003
 
KBUR - Burbank, California, USA
Distance from station: SSW 22mi, 35km
Updated: Sun, 17-Feb-2019 12:53pm PST
Overcast
Overcast
 Wind from W
Wind: W 8 mph , 13 km/h
Temperature: 52°F , 11°C
Dew Point: 37°F , 3°C
Humidity: 58%
Barometer: 30.00 inHg , 1015.9 hPa
Clouds: Overcast
Visibility: 10 miles , 16 km
Cloud details: Overcast 4000 ft
2019/02/17 20:53 KBUR 172053Z 27007KT 10SM OVC040 11/03 A3000 RMK AO2 SLP154 T01110028 58023 $
KVNY - Van Nuys, California, USA
Distance from station: SW 25mi, 40km
Updated: Sun, 17-Feb-2019 12:51pm PST
Overcast
Overcast
 Wind from WSW
Wind: WSW 10 mph , 17 km/h, Gust: 17 mph , 28 km/h
Temperature: 55°F , 13°C
Dew Point: 37°F , 3°C
Humidity: 51%
Barometer: 29.99 inHg , 1015.6 hPa
Clouds: Overcast
Visibility: 10 miles , 16 km
Cloud details: Overcast 3500 ft
2019/02/17 20:51 KVNY 172051Z 24009G15KT 10SM OVC035 13/03 A2999 RMK AO2 SLP152 T01330033 58026
 
KEDW - Edwards Afb, California, USA
Distance from station: NNE 33mi, 53km
Updated: Sun, 17-Feb-2019 11:58am PST
Light rain, Mostly cloudy
Light rain, Mostly cloudy
 Wind from WSW
Wind: WSW 21 mph , 33 km/h, Gust: 29 mph , 46 km/h
Temperature: 45°F , 7°C
Wind Chill: 37°F , 3°C
Dew Point: 34°F , 1°C
Humidity: 66%
Barometer: 29.92 inHg , 1013.2 hPa
Summary: Light rain
Clouds: Mostly cloudy
Visibility: 50 miles , 80 km
Cloud details: Few Clouds 1600 ft
Partly cloudy 2300 ft
Mostly cloudy 5000 ft
2019/02/17 19:58 KEDW 171958Z 24018G25KT 50SM -RA FEW016 SCT023 BKN050 07/01 A2992 RMK AO2A PK WND 22028/21 SLP136 P0000 T00700007
KSMO - Santa Monica, California, USA
Distance from station: SSW 35mi, 57km
Updated: Sun, 17-Feb-2019 12:51pm PST
Overcast
Overcast
 Wind from WSW
Wind: WSW 9 mph , 15 km/h
Temperature: 54°F , 12°C
Dew Point: 43°F , 6°C
Humidity: 67%
Barometer: 30.03 inHg , 1016.9 hPa
Clouds: Overcast
Visibility: 10 miles , 16 km
Cloud details: Few Clouds 4900 ft
Mostly cloudy 6000 ft
Overcast 8000 ft
2019/02/17 20:51 KSMO 172051Z 24008KT 10SM FEW049 BKN060 OVC080 12/06 A3003 RMK AO2 RAB1957E09 SLP167 P0000 60000 T01220056 58021
 
KLAX - Los Angeles, California, USA
Distance from station: SSW 39mi, 63km
Updated: Sun, 17-Feb-2019 12:53pm PST
Mostly cloudy
Mostly cloudy
 Wind from WSW
Wind: WSW 12 mph , 19 km/h
Temperature: 54°F , 12°C
Dew Point: 43°F , 6°C
Humidity: 67%
Barometer: 30.04 inHg , 1017.3 hPa
Clouds: Mostly cloudy
Visibility: 10 miles , 16 km
Cloud details: Few Clouds 2800 ft
Partly cloudy 4700 ft
Mostly cloudy 7000 ft
2019/02/17 20:53 KLAX 172053Z 25010KT 10SM FEW028 SCT047 BKN070 12/06 A3004 RMK AO2 SLP170 T01220056 58020
KMHV - Mojave, California, USA
Distance from station: N 41mi, 66km
Updated: Sun, 17-Feb-2019 12:20pm PST
Mist, Partly cloudy
Mist, Partly cloudy
 Wind from W
Wind: W 10 mph , 17 km/h
Temperature: 39°F , 4°C
Wind Chill: 32°F , 0°C
Dew Point: 36°F , 2°C
Humidity: 87%
Barometer: 29.93 inHg , 1013.5 hPa
Summary: Mist
Clouds: Partly cloudy
Visibility: 3 miles , 5 km
Cloud details: Few Clouds 1500 ft
Partly cloudy 2400 ft
Partly cloudy 3200 ft
2019/02/17 20:20 KMHV 172020Z AUTO 26009KT 3SM BR FEW015 SCT024 SCT032 04/02 A2993 RMK A01
 
KFUL - Fullerton, California, USA
Distance from station: SSE 44mi, 70km
Updated: Sun, 17-Feb-2019 12:53pm PST
Overcast
Overcast
 Wind from W
Wind: W 5 mph , 7 km/h, Gust: 21 mph , 33 km/h
Temperature: 55°F , 13°C
Dew Point: 39°F , 4°C
Humidity: 55%
Barometer: 30.03 inHg , 1016.9 hPa
Clouds: Overcast
Visibility: 10 miles , 16 km
Cloud details: Mostly cloudy 3500 ft
Overcast 4800 ft
2019/02/17 20:53 KFUL 172053Z 26004G18KT 10SM BKN035 OVC048 13/04 A3003 RMK AO2 RAB20E29 SLP168 P0000 60000 T01330044 58021
KONT - Ontario, California, USA
Distance from station: SE 45mi, 72km
Updated: Sun, 17-Feb-2019 12:53pm PST
Overcast
Overcast
 Wind from SW
Wind: SW 15 mph , 24 km/h, Gust: 21 mph , 33 km/h
Temperature: 54°F , 12°C
Dew Point: 30°F , -1°C
Humidity: 41%
Barometer: 30.01 inHg , 1016.3 hPa
Clouds: Overcast
Visibility: 10 miles , 16 km
Cloud details: Mostly cloudy 4600 ft
Overcast 6000 ft
2019/02/17 20:53 KONT 172053Z 23013G18KT 200V280 10SM BKN046 OVC060 12/M01 A3001 RMK AO2 SLP163 T01221006 58023
 
KLGB - Long Beach, California, USA
Distance from station: S 46mi, 74km
Updated: Sun, 17-Feb-2019 12:53pm PST
Rain, Overcast
Rain, Overcast
 Wind from WSW
Wind: WSW 10 mph , 17 km/h, Gust: 22 mph , 35 km/h
Temperature: 52°F , 11°C
Dew Point: 45°F , 7°C
Humidity: 77%
Barometer: 30.05 inHg , 1017.6 hPa
Summary: Rain
Clouds: Overcast
Visibility: 6 miles , 10 km
Cloud details: Partly cloudy 3000 ft
Mostly cloudy 3600 ft
Overcast 5000 ft
2019/02/17 20:53 KLGB 172053Z 25009G19KT 6SM R30/4500VP6000FT RA SCT030 BKN036 OVC050 11/07 A3005 RMK AO2 RAB43 SLP175 P0001 60001 T01110072 58017
KVCV - Victorville, California, USA
Distance from station: E 46mi, 74km
Updated: Sun, 17-Feb-2019 12:45pm PST
Mostly cloudy
Mostly cloudy
 Wind from SSW
Wind: SSW 14 mph , 22 km/h, Gust: 24 mph , 39 km/h
Barometer: 29.88 inHg , 1011.9 hPa
Clouds: Mostly cloudy
Visibility: 10 miles , 16 km
Cloud details: Mostly cloudy 8000 ft
2019/02/17 20:45 KVCV 172045Z 21012G21KT 10SM BKN080 A2988
 
KTSP - Tehachapi, California, USA
Distance from station: NNW 48mi, 77km
Updated: Sun, 17-Feb-2019 12:55pm PST
Light rain, Mostly cloudy
Light rain, Mostly cloudy
 Wind from WNW
Wind: WNW 20 mph , 31 km/h, Gust: 28 mph , 44 km/h
Temperature: 32°F , 0°C
Wind Chill: 20°F , -7°C
Dew Point: 32°F , 0°C
Humidity: 100%
Barometer: 29.90 inHg , 1012.5 hPa
Summary: Light rain
Clouds: Mostly cloudy
Visibility: 2 miles , 3 km
Cloud details: Partly cloudy 300 ft
Partly cloudy 900 ft
Mostly cloudy 1700 ft
2019/02/17 20:55 KTSP 172055Z AUTO 29017G24KT 2SM -RA SCT003 SCT009 BKN017 00/00 A2990 RMK AO2 P0032